FYKT/KMP METAR and TAF weather

Enter ICAO airport designator
Station Type Date Time Source
FYKT METAR 2020/09/28 09:00 UTC NOAA

FYKT 280900Z 02004KT CAVOK 15/M05 Q1024


Station Type Date Time Source
FYKT Decoded METAR 2020/09/28 09:00 UTC NOAA

Keetmanshoop, Namibia (FYKT) 26-32S 018-07E 1100M
Sep 28, 2020 - 05:00 AM EDT / 2020.09.28 0900 UTC
Wind: from the NNE (020 degrees) at 5 MPH (4 KT):0
Visibility: greater than 7 mile(s):0
Temperature: 59 F (15 C)
Dew Point: 23 F (-5 C)
Relative Humidity: 24%
Pressure (altimeter): 30.24 in. Hg (1024 hPa)
ob: FYKT 280900Z 02004KT CAVOK 15/M05 Q1024
cycle: 9

Station Type Date Time Source
FYKT TAF 2020/09/28 06:50 UTC NOAA

TAF FYKT 280400Z 2806/2906 22006KT CAVOK

Example: see airport list